Main page
METAR-TAF:

METAR-TAF

Airports :

Warroad International Memorial Airport

Warroad, Minnesota, United States

latitude: 48-56-29N, longitude: 095-20-54W, elevation: 1073 ft

Current weather observation

The report was made 12 minutes ago, at 01:35 UTC
Wind 12 mph from the East/Southeast
Temperature 36°F
Humidity 87%
Pressure 29.26 in. Hg
Visibility: 4 miles
Overcast at a height of 700 ft
rain

METAR: KRRT 040135Z AUTO 12010KT 4SM RA OVC007 02/00 A2926 RMK AO2

Time: 19:47 (01:47 UTC)


TAF: missing

Weather observations and forecasts of more than 4000 airports (METAR and TAF reports).

The available stations are represented by yellow and red dots on the map.

Hover mouse over dot to see the name of the station.

Then click to see weather observations and forecasts.

To change the map : click on the green buttons with a black cross to zoom in, on the green button with a dash to zoom out, or on the green arrows for adjacent maps.


METAR-TAF: